Stockholm-Arlanda flygplats, Sweden

06:15 PM CET on November 18, 2018 (GMT +0100)
Knivsta, Särsta | | Change Station

Elev 105 ft 59.72 °N, 17.80 °E | Updated 5 seconds ago

Mestadels molnigt
Mestadels molnigt
38.7 °F
Feels Like 32 °F
N
11
Vind Växlande Vind from NO
Gusts 11.0 miles/tim

Idag
High -- | Low -- °F
--% Chance of Precip.
Yesterday
High -- | Low -- °F
Precip. -- tum
Lufttryck 30.71 tum
Sikt 6.2 miles
Molnigt Molnigt 2400 ft
Vindavkylning 32 °F
Daggpunkt 34 °F
Luftfuktighet 82%
Rainfall 0.01 tum
Snow Depth Not available.
7:52 AM 3:15 PM
Andra kvarteret, 78% visible
METAR ESCM 181650Z AUTO 03014KT 9999 OVC024/// 04/00 Q1040
Lufttryck 30.71 tum
Sikt 6.2 miles
Molnigt Molnigt 2400 ft
Vindavkylning 32 °F
Daggpunkt 34 °F
Luftfuktighet 82%
Rainfall 0.01 tum
Snow Depth Not available.
7:52 AM 3:15 PM
Andra kvarteret, 78% visible
METAR ESCM 181650Z AUTO 03014KT 9999 OVC024/// 04/00 Q1040

Get Severe Weather Alerts

Thanks for signing up!

Be on the lookout for a verification email in your inbox.

You'll start receiving the daily forecast at 6 AM.

×

10-Day Weather Forecast

×

Almanac

Astronomi

Nov. 18, 2018 Rise Set
Actual Time
Civil Twilight
Nautical Twilight
Astronomical Twilight
Månen
Length Of Visible Light
Dagens längd
Tomorrow will be .
, % of the Moon is Illuminated

Today's Extremes

Country Highs Country Lows

Community

WunderPhotos

Category 6

Welcome to Category 6. This is the collective home for Weather Underground's featured writeups by Dr. Jeff Masters (right), Bob Henson (left), Chris Burt, and other regular contributors.

Nearby

Air Quality

  Air Quality AQ Index Pollutant
Not available.

Snödjup

Station Depth Elevation

Earthquake Activity

Stad Distance Mag. Time & Date
Minimum magnitude displayed is 2.5.

Coastal Water Temperatures

Plats Temperatur

Stations

Nearby Weather Stations

Station Location Temp Vindavkylning Daggpunkt Luftfuktighet Vind Precip. Elev Uppdaterad Type